createdAt,value
2018-07-12T00:01:28.853Z,99.90
2018-07-12T00:03:55.612Z,99.90
2018-07-12T00:06:22.429Z,99.90
2018-07-12T00:08:49.198Z,99.90
2018-07-12T00:11:15.908Z,99.90
2018-07-12T00:13:42.682Z,99.90
2018-07-12T00:16:09.413Z,99.90
2018-07-12T00:18:36.160Z,99.90
2018-07-12T00:21:02.899Z,99.90
2018-07-12T00:23:29.633Z,99.90
2018-07-12T00:25:56.321Z,99.90
2018-07-12T00:28:23.011Z,99.90
2018-07-12T00:30:49.777Z,99.90
2018-07-12T00:33:16.483Z,99.90
2018-07-12T00:35:44.081Z,99.90
2018-07-12T00:38:10.852Z,99.90
2018-07-12T00:40:37.538Z,99.90
2018-07-12T00:43:04.306Z,99.90
2018-07-12T00:45:31.028Z,99.90
2018-07-12T00:47:57.889Z,99.90
2018-07-12T00:50:24.629Z,99.90
2018-07-12T00:52:51.476Z,99.90
2018-07-12T00:55:18.340Z,99.90
2018-07-12T00:57:45.026Z,99.90
2018-07-12T01:00:11.792Z,99.90
2018-07-12T01:02:38.713Z,99.90
2018-07-12T01:07:32.717Z,99.90
2018-07-12T01:09:59.518Z,99.90
2018-07-12T01:12:26.220Z,99.90
2018-07-12T01:14:52.971Z,99.90
2018-07-12T01:17:19.702Z,99.90
2018-07-12T01:19:46.421Z,99.90
2018-07-12T01:22:13.205Z,99.90
2018-07-12T01:24:39.914Z,99.90
2018-07-12T01:27:06.663Z,99.90
2018-07-12T01:29:33.492Z,99.90
2018-07-12T01:32:00.288Z,99.90
2018-07-12T01:34:27.019Z,99.90
2018-07-12T01:36:53.928Z,99.90
2018-07-12T01:39:20.705Z,99.90
2018-07-12T01:41:47.414Z,99.90
2018-07-12T01:44:14.289Z,99.90
2018-07-12T01:46:40.992Z,99.90
2018-07-12T01:49:07.759Z,99.90
2018-07-12T01:51:34.480Z,99.90
2018-07-12T01:54:01.236Z,99.90
2018-07-12T01:56:27.969Z,99.90
2018-07-12T01:58:54.720Z,99.90
2018-07-12T02:01:21.455Z,99.90
2018-07-12T02:03:48.256Z,99.90
2018-07-12T02:06:15.092Z,99.90
2018-07-12T02:08:41.776Z,99.90
2018-07-12T02:11:08.532Z,99.90
2018-07-12T02:13:35.248Z,99.90
2018-07-12T02:16:02.034Z,99.90
2018-07-12T02:18:28.733Z,99.90
2018-07-12T02:20:55.492Z,99.90
2018-07-12T02:23:22.353Z,99.90
2018-07-12T02:25:49.092Z,99.90
2018-07-12T02:28:15.911Z,99.90
2018-07-12T02:30:42.790Z,99.90
2018-07-12T02:33:09.529Z,99.90
2018-07-12T02:35:36.246Z,99.90
2018-07-12T02:38:03.016Z,99.90
2018-07-12T02:40:29.723Z,99.90
2018-07-12T02:42:56.411Z,99.90
2018-07-12T02:45:23.060Z,99.90
2018-07-12T02:47:49.757Z,99.90
2018-07-12T02:50:16.477Z,99.90
2018-07-12T02:52:43.142Z,99.90
2018-07-12T02:55:09.852Z,99.90
2018-07-12T02:57:36.491Z,99.90
2018-07-12T03:00:03.186Z,99.90
2018-07-12T03:02:30.820Z,99.90
2018-07-12T03:04:58.626Z,99.90
2018-07-12T03:07:26.438Z,99.90
2018-07-12T03:09:58.960Z,99.90
2018-07-12T03:12:31.781Z,99.90
2018-07-12T03:19:58.440Z,99.90
2018-07-12T03:22:31.178Z,99.90
2018-07-12T03:24:59.746Z,99.90
2018-07-12T03:27:28.322Z,99.90
2018-07-12T03:32:33.052Z,99.90
2018-07-12T03:35:00.942Z,99.90
2018-07-12T03:37:29.509Z,99.90
2018-07-12T03:39:57.766Z,99.90
2018-07-12T03:42:25.941Z,99.90
2018-07-12T03:44:54.282Z,99.90
2018-07-12T03:47:23.996Z,99.90
2018-07-12T03:49:53.560Z,99.90
2018-07-12T03:54:52.283Z,99.90
2018-07-12T03:57:20.687Z,99.90
2018-07-12T03:59:48.965Z,99.90
2018-07-12T04:02:17.591Z,99.90
2018-07-12T04:04:45.798Z,99.90
2018-07-12T04:07:13.875Z,99.90
2018-07-12T04:09:40.556Z,99.90
2018-07-12T04:12:07.214Z,99.90
2018-07-12T04:14:34.092Z,99.90
2018-07-12T04:17:00.804Z,99.90
2018-07-12T04:19:27.521Z,99.90
2018-07-12T04:21:54.216Z,99.90
2018-07-12T04:24:20.868Z,99.90
2018-07-12T04:26:47.549Z,99.90
2018-07-12T04:31:41.408Z,99.90
2018-07-12T04:34:08.112Z,99.90
2018-07-12T04:36:34.785Z,99.90
2018-07-12T04:39:01.487Z,99.90
2018-07-12T04:41:28.215Z,99.90
2018-07-12T04:43:54.917Z,99.90
2018-07-12T04:46:21.612Z,99.90
2018-07-12T04:48:48.311Z,99.90
2018-07-12T04:51:15.035Z,99.90
2018-07-12T04:53:41.686Z,99.90
2018-07-12T04:56:08.400Z,99.90
2018-07-12T04:58:35.240Z,99.90
2018-07-12T05:01:01.928Z,99.90
2018-07-12T05:03:28.667Z,99.90
2018-07-12T05:05:55.335Z,99.90
2018-07-12T05:08:22.003Z,99.90
2018-07-12T05:10:48.690Z,99.90
2018-07-12T05:13:15.389Z,99.90
2018-07-12T05:15:42.075Z,99.90
2018-07-12T05:20:35.861Z,99.90
2018-07-12T05:25:29.679Z,99.90
2018-07-12T05:27:56.336Z,99.90
2018-07-12T05:30:22.993Z,99.90
2018-07-12T05:32:49.695Z,99.90
2018-07-12T05:35:16.418Z,99.90
2018-07-12T05:42:39.904Z,99.90
2018-07-12T05:45:07.850Z,99.90
2018-07-12T05:47:35.809Z,99.90
2018-07-12T05:50:03.866Z,99.90
2018-07-12T05:52:31.900Z,99.90
2018-07-12T05:57:27.676Z,99.90
2018-07-12T05:59:55.708Z,99.90
2018-07-12T06:04:52.160Z,99.90
2018-07-12T06:07:25.733Z,99.90
2018-07-12T06:09:53.733Z,99.90
2018-07-12T06:12:21.652Z,99.90
2018-07-12T06:14:50.072Z,99.90
2018-07-12T06:17:18.097Z,99.90
2018-07-12T06:19:46.099Z,99.90
2018-07-12T06:22:14.126Z,99.90
2018-07-12T06:24:42.123Z,99.90
2018-07-12T06:27:10.165Z,99.90
2018-07-12T06:29:38.296Z,99.90
2018-07-12T06:32:06.749Z,99.90
2018-07-12T06:34:34.901Z,99.90
2018-07-12T06:37:03.224Z,99.90
2018-07-12T06:39:31.272Z,99.90
2018-07-12T06:41:59.330Z,99.90
2018-07-12T06:44:27.548Z,99.90
2018-07-12T06:46:55.594Z,99.90
2018-07-12T06:49:23.774Z,99.90
2018-07-12T06:51:51.861Z,99.90
2018-07-12T06:54:19.880Z,99.90
2018-07-12T06:59:15.960Z,99.90
2018-07-12T07:01:44.021Z,99.90
2018-07-12T07:04:12.201Z,99.90
2018-07-12T07:06:40.601Z,99.90
2018-07-12T07:09:09.723Z,99.90
2018-07-12T07:11:38.051Z,99.90
2018-07-12T07:14:06.341Z,99.90
2018-07-12T07:16:34.589Z,99.90
2018-07-12T07:21:30.585Z,99.90
2018-07-12T07:23:58.930Z,99.90
2018-07-12T07:26:27.241Z,99.90
2018-07-12T07:28:55.508Z,99.90
2018-07-12T07:31:23.589Z,99.90
2018-07-12T07:33:51.745Z,99.90
2018-07-12T07:36:19.998Z,99.90
2018-07-12T07:41:16.079Z,99.90
2018-07-12T07:43:44.218Z,99.90
2018-07-12T07:46:12.308Z,99.90
2018-07-12T07:48:40.377Z,99.90
2018-07-12T07:51:08.898Z,99.90
2018-07-12T07:53:37.448Z,99.90
2018-07-12T07:56:05.634Z,99.90
2018-07-12T07:58:33.823Z,99.90
2018-07-12T08:01:01.892Z,99.90
2018-07-12T08:03:30.000Z,99.90
2018-07-12T08:05:58.132Z,99.90
2018-07-12T08:08:26.408Z,99.90
2018-07-12T08:10:54.776Z,99.90
2018-07-12T08:13:23.180Z,99.90
2018-07-12T08:15:51.382Z,99.90
2018-07-12T08:18:19.708Z,99.90
2018-07-12T08:20:47.910Z,99.90
2018-07-12T08:23:16.270Z,99.90
2018-07-12T08:25:44.380Z,99.90
2018-07-12T08:28:19.905Z,99.90
2018-07-12T08:30:47.999Z,99.90
2018-07-12T08:33:16.164Z,99.90
2018-07-12T08:35:44.473Z,99.90
2018-07-12T08:38:12.709Z,99.90
2018-07-12T08:40:40.825Z,99.90
2018-07-12T08:43:09.353Z,98.50
2018-07-12T08:45:37.437Z,99.10
2018-07-12T08:48:05.916Z,99.90
2018-07-12T08:50:34.197Z,99.20
2018-07-12T08:53:02.583Z,98.90
2018-07-12T08:55:30.752Z,99.00
2018-07-12T08:57:58.823Z,99.50
2018-07-12T09:00:27.017Z,99.50
2018-07-12T09:02:55.153Z,99.90
2018-07-12T09:05:23.197Z,99.90
2018-07-12T09:07:51.460Z,99.90
2018-07-12T09:10:19.579Z,99.90
2018-07-12T09:12:47.881Z,99.90
2018-07-12T09:15:16.065Z,99.90
2018-07-12T09:17:44.265Z,99.90
2018-07-12T09:20:12.220Z,99.90
2018-07-12T09:22:40.578Z,99.90
2018-07-12T09:25:08.485Z,99.90
2018-07-12T09:27:36.686Z,99.90
2018-07-12T09:32:32.553Z,99.90
2018-07-12T09:35:00.615Z,99.90
2018-07-12T09:37:28.925Z,99.90
2018-07-12T09:39:57.297Z,99.90
2018-07-12T09:42:25.325Z,99.90
2018-07-12T09:47:21.302Z,99.90
2018-07-12T09:49:49.337Z,99.90
2018-07-12T09:54:50.952Z,99.90
2018-07-12T09:57:30.296Z,99.90
2018-07-12T09:59:58.406Z,99.90
2018-07-12T10:02:31.880Z,99.90
2018-07-12T10:04:59.976Z,99.90
2018-07-12T10:07:33.437Z,99.90
2018-07-12T10:10:01.639Z,99.90
2018-07-12T10:12:36.974Z,99.90
2018-07-12T10:15:09.708Z,99.90
2018-07-12T10:20:16.138Z,99.90
2018-07-12T10:22:44.314Z,99.90
2018-07-12T10:25:12.252Z,99.90
2018-07-12T10:27:40.131Z,99.90
2018-07-12T10:30:08.070Z,99.90
2018-07-12T10:32:35.996Z,99.90
2018-07-12T10:35:03.998Z,99.90
2018-07-12T10:39:59.922Z,99.90
2018-07-12T10:42:28.081Z,99.90
2018-07-12T10:44:56.118Z,99.90
2018-07-12T10:49:51.972Z,99.90
2018-07-12T10:52:20.064Z,99.90
2018-07-12T10:54:48.127Z,99.90
2018-07-12T10:57:16.291Z,99.90
2018-07-12T10:59:44.490Z,99.90
2018-07-12T11:02:12.628Z,99.90
2018-07-12T11:07:08.678Z,99.90
2018-07-12T11:09:36.659Z,99.90
2018-07-12T11:12:04.652Z,99.90
2018-07-12T11:14:32.553Z,99.90
2018-07-12T11:17:00.505Z,99.90
2018-07-12T11:19:28.500Z,99.90
2018-07-12T11:21:56.420Z,99.90
2018-07-12T11:24:24.315Z,99.90
2018-07-12T11:26:52.273Z,99.90
2018-07-12T11:29:30.156Z,99.90
2018-07-12T11:31:58.143Z,99.90
2018-07-12T11:34:26.069Z,99.90
2018-07-12T11:39:21.737Z,99.90
2018-07-12T11:41:49.694Z,99.90
2018-07-12T11:44:17.631Z,99.90
2018-07-12T11:46:45.533Z,99.90
2018-07-12T11:49:13.504Z,99.90
2018-07-12T11:51:41.395Z,99.90
2018-07-12T11:54:09.333Z,99.90
2018-07-12T11:56:37.277Z,99.90
2018-07-12T11:59:05.484Z,99.90
2018-07-12T12:01:33.444Z,99.90
2018-07-12T12:06:29.119Z,99.90
2018-07-12T12:08:57.055Z,99.90
2018-07-12T12:11:24.984Z,99.90
2018-07-12T12:13:53.081Z,99.90
2018-07-12T12:16:21.005Z,99.90
2018-07-12T12:18:48.905Z,99.90
2018-07-12T12:21:16.867Z,99.90
2018-07-12T12:23:44.813Z,99.90
2018-07-12T12:26:12.773Z,99.90
2018-07-12T12:28:40.712Z,99.90
2018-07-12T12:33:36.429Z,99.90
2018-07-12T12:36:04.304Z,99.90
2018-07-12T12:38:32.224Z,99.90
2018-07-12T12:41:00.107Z,99.90
2018-07-12T12:43:28.033Z,99.90
2018-07-12T12:45:55.984Z,99.90
2018-07-12T12:50:51.717Z,99.90
2018-07-12T12:53:19.654Z,99.90
2018-07-12T12:55:47.578Z,99.90
2018-07-12T12:58:16.345Z,99.90
2018-07-12T13:00:44.321Z,99.90
2018-07-12T13:03:12.254Z,99.90
2018-07-12T13:05:40.177Z,99.90
2018-07-12T13:08:08.216Z,99.90
2018-07-12T13:13:03.848Z,99.90
2018-07-12T13:15:31.785Z,99.90
2018-07-12T13:17:59.824Z,99.90
2018-07-12T13:22:55.532Z,99.90
2018-07-12T13:25:23.572Z,99.90
2018-07-12T13:30:19.545Z,99.90
2018-07-12T13:32:47.463Z,99.90
2018-07-12T13:35:15.443Z,98.70
2018-07-12T13:37:43.386Z,98.90
2018-07-12T13:40:11.305Z,99.90
2018-07-12T13:42:39.224Z,99.60
2018-07-12T13:45:07.180Z,99.20
2018-07-12T13:50:02.946Z,99.60
2018-07-12T13:52:30.925Z,99.90
2018-07-12T13:54:58.881Z,99.90
2018-07-12T13:57:26.893Z,99.90
2018-07-12T13:59:54.842Z,99.90
2018-07-12T14:02:22.751Z,99.90
2018-07-12T14:04:50.760Z,99.90
2018-07-12T14:07:18.624Z,99.90
2018-07-12T14:09:46.597Z,98.90
2018-07-12T14:12:14.483Z,99.90
2018-07-12T14:14:42.421Z,99.90
2018-07-12T14:19:38.117Z,99.50
2018-07-12T14:22:06.062Z,99.90
2018-07-12T14:24:34.045Z,99.90
2018-07-12T14:27:02.051Z,99.90
2018-07-12T14:29:29.969Z,99.70
2018-07-12T14:31:57.894Z,99.20
2018-07-12T14:34:25.868Z,98.40
2018-07-12T14:36:53.757Z,99.50
2018-07-12T14:41:49.473Z,99.80
2018-07-12T14:44:17.382Z,99.90
2018-07-12T14:46:45.297Z,99.90
2018-07-12T14:49:13.232Z,99.20
2018-07-12T14:51:41.201Z,99.30
2018-07-12T14:54:09.101Z,99.30
2018-07-12T14:56:37.071Z,98.40
2018-07-12T14:59:05.010Z,99.10
2018-07-12T15:01:32.941Z,97.70
2018-07-12T15:06:28.680Z,98.50
2018-07-12T15:11:24.515Z,98.60
2018-07-12T15:16:20.209Z,95.90
2018-07-12T15:18:48.121Z,96.50
2018-07-12T15:21:16.090Z,97.00
2018-07-12T15:23:44.010Z,96.40
2018-07-12T15:26:12.010Z,96.40
2018-07-12T15:28:40.082Z,94.80
2018-07-12T15:31:08.083Z,95.70
2018-07-12T15:33:36.104Z,96.70
2018-07-12T15:36:04.061Z,96.80
2018-07-12T15:38:31.960Z,96.50
2018-07-12T15:40:59.907Z,95.90
2018-07-12T15:43:27.874Z,96.20
2018-07-12T15:45:55.779Z,94.40
2018-07-12T15:48:23.885Z,94.80
2018-07-12T15:50:51.830Z,95.30
2018-07-12T15:53:19.761Z,95.90
2018-07-12T15:55:47.647Z,96.20
2018-07-12T15:58:15.584Z,96.20
2018-07-12T16:00:43.512Z,95.40
2018-07-12T16:03:11.482Z,95.70
2018-07-12T16:05:39.422Z,96.20
2018-07-12T16:08:07.350Z,95.60
2018-07-12T16:13:03.130Z,96.20
2018-07-12T16:15:31.051Z,95.80
2018-07-12T16:22:54.482Z,94.80
2018-07-12T16:25:22.413Z,96.80
2018-07-12T16:30:18.255Z,95.60
2018-07-12T16:37:41.705Z,95.20
2018-07-12T16:40:09.615Z,92.90
2018-07-12T16:42:37.532Z,90.90
2018-07-12T16:45:06.003Z,90.60
2018-07-12T16:47:33.968Z,88.70
2018-07-12T16:50:01.985Z,85.10
2018-07-12T16:52:29.929Z,85.40
2018-07-12T16:54:57.825Z,82.30
2018-07-12T16:57:25.736Z,81.90
2018-07-12T17:02:21.554Z,83.90
2018-07-12T17:04:49.513Z,83.00
2018-07-12T17:07:17.471Z,82.50
2018-07-12T17:09:45.397Z,80.10
2018-07-12T17:12:18.048Z,82.10
2018-07-12T17:14:48.941Z,83.80
2018-07-12T17:17:16.912Z,83.30
2018-07-12T17:19:45.150Z,81.90
2018-07-12T17:22:13.165Z,79.50
2018-07-12T17:24:41.224Z,80.60
2018-07-12T17:27:09.225Z,80.10
2018-07-12T17:29:37.216Z,81.00
2018-07-12T17:32:05.593Z,79.90
2018-07-12T17:34:33.847Z,80.60
2018-07-12T17:37:01.994Z,79.60
2018-07-12T17:39:30.642Z,80.90
2018-07-12T17:41:58.880Z,78.70
2018-07-12T17:44:28.055Z,78.60
2018-07-12T17:46:56.346Z,77.70
2018-07-12T17:49:24.632Z,77.20
2018-07-12T17:51:53.189Z,79.40
2018-07-12T17:54:21.640Z,78.90
2018-07-12T17:56:49.952Z,78.00
2018-07-12T17:59:18.197Z,79.50
2018-07-12T18:04:14.259Z,78.70
2018-07-12T18:06:42.189Z,79.60
2018-07-12T18:09:10.189Z,80.70
2018-07-12T18:14:06.010Z,80.20
2018-07-12T18:16:33.925Z,80.10
2018-07-12T18:19:01.885Z,82.30
2018-07-12T18:21:30.536Z,84.00
2018-07-12T18:23:58.473Z,86.90
2018-07-12T18:26:26.409Z,90.30
2018-07-12T18:28:54.410Z,91.90
2018-07-12T18:31:22.457Z,92.10
2018-07-12T18:33:50.695Z,92.90
2018-07-12T18:36:18.811Z,92.30
2018-07-12T18:38:47.057Z,94.00
2018-07-12T18:41:15.258Z,94.20
2018-07-12T18:46:11.542Z,96.30
2018-07-12T18:48:43.688Z,98.40
2018-07-12T18:51:15.851Z,98.40
2018-07-12T18:53:49.512Z,99.70
2018-07-12T18:58:55.384Z,99.90
2018-07-12T19:01:28.129Z,99.90
2018-07-12T19:04:00.053Z,99.90
2018-07-12T19:09:04.898Z,99.90
2018-07-12T19:11:37.234Z,99.90
2018-07-12T19:14:10.547Z,99.90
2018-07-12T19:16:43.295Z,99.90
2018-07-12T19:19:15.717Z,99.90
2018-07-12T19:21:51.394Z,99.90
2018-07-12T19:24:25.106Z,99.90
2018-07-12T19:26:58.083Z,99.90
2018-07-12T19:29:30.314Z,99.90
2018-07-12T19:32:02.322Z,99.90
2018-07-12T19:34:35.707Z,99.90
2018-07-12T19:37:07.950Z,99.90
2018-07-12T19:39:40.886Z,99.90
2018-07-12T19:42:19.007Z,99.90
2018-07-12T19:44:52.801Z,99.90
2018-07-12T19:47:24.631Z,99.90
2018-07-12T19:50:03.484Z,99.90
2018-07-12T19:55:18.244Z,99.90
2018-07-12T19:57:53.960Z,99.90
2018-07-12T20:00:31.449Z,99.90
2018-07-12T20:03:08.771Z,99.90
2018-07-12T20:05:39.687Z,99.90
2018-07-12T20:08:10.913Z,99.90
2018-07-12T20:10:43.524Z,99.90
2018-07-12T20:13:15.162Z,99.90
2018-07-12T20:15:47.070Z,99.90
2018-07-12T20:18:19.819Z,99.90
2018-07-12T20:20:51.069Z,99.90
2018-07-12T20:23:22.449Z,99.90
2018-07-12T20:25:55.279Z,99.90
2018-07-12T20:28:26.809Z,99.90
2018-07-12T20:35:59.574Z,99.90
2018-07-12T20:38:31.788Z,99.90
2018-07-12T20:43:35.523Z,99.90
2018-07-12T20:51:08.597Z,99.90
2018-07-12T20:53:41.656Z,99.90
2018-07-12T20:56:14.508Z,99.90
2018-07-12T21:01:17.438Z,99.90
2018-07-12T21:06:20.252Z,99.90
2018-07-12T21:08:52.498Z,99.90
2018-07-12T21:13:59.931Z,99.90
2018-07-12T21:16:30.545Z,99.90
2018-07-12T21:21:32.883Z,99.90
2018-07-12T21:24:04.787Z,99.90
2018-07-12T21:29:08.241Z,99.90
2018-07-12T21:31:51.658Z,99.90
2018-07-12T21:34:24.258Z,99.90
2018-07-12T21:36:56.514Z,99.90
2018-07-12T21:39:28.735Z,99.90
2018-07-12T21:44:39.373Z,99.90
2018-07-12T21:47:18.129Z,99.90
2018-07-12T21:49:56.713Z,99.90
2018-07-12T21:52:39.025Z,99.90
2018-07-12T21:55:19.783Z,99.90
2018-07-12T21:57:59.938Z,99.90
2018-07-12T22:03:08.758Z,99.90
2018-07-12T22:05:40.182Z,99.90
2018-07-12T22:08:14.267Z,99.90
2018-07-12T22:10:46.104Z,99.90
2018-07-12T22:15:48.525Z,99.90
2018-07-12T22:18:21.630Z,99.90
2018-07-12T22:20:53.272Z,99.90
2018-07-12T22:23:26.369Z,99.90
2018-07-12T22:25:58.324Z,99.90
2018-07-12T22:28:29.845Z,99.90
2018-07-12T22:33:32.561Z,99.90
2018-07-12T22:36:04.011Z,99.90
2018-07-12T22:38:35.623Z,99.90
2018-07-12T22:41:06.975Z,99.90
2018-07-12T22:43:38.300Z,99.90
2018-07-12T22:46:16.977Z,99.90
2018-07-12T22:53:51.831Z,99.90
2018-07-12T22:56:23.869Z,99.90
2018-07-12T22:58:55.726Z,99.90
2018-07-12T23:01:27.668Z,99.90
2018-07-12T23:03:59.630Z,99.90
2018-07-12T23:06:31.864Z,99.90
2018-07-12T23:09:03.729Z,99.90
2018-07-12T23:11:35.815Z,99.90
2018-07-12T23:14:08.246Z,99.90
2018-07-12T23:16:40.666Z,99.90
2018-07-12T23:19:12.550Z,99.90
2018-07-12T23:21:44.428Z,99.90
2018-07-12T23:24:16.673Z,99.90
2018-07-12T23:26:48.416Z,99.90
2018-07-12T23:31:51.076Z,99.90
2018-07-12T23:34:22.761Z,99.90
2018-07-12T23:39:25.063Z,99.90
2018-07-12T23:41:56.664Z,99.90
2018-07-12T23:44:28.699Z,99.90
2018-07-12T23:47:02.833Z,99.90
2018-07-12T23:49:35.615Z,99.90
2018-07-12T23:52:07.960Z,99.90
2018-07-12T23:57:11.477Z,99.90
2018-07-12T23:59:43.582Z,99.90
